Time;durP1;ratioP1;P1;durP2;ratioP2;P2;SDS_P1;SDS_P2;PMS_P1;PMS_P2;Temp;Humidity;BMP_temperature;BMP_pressure;BME280_temperature;BME280_humidity;BME280_pressure;Samples;Min_cycle;Max_cycle;Signal;HPM_P1;HPM_P2
2022/03/14 00:00:20;;;;;;;17.25;13.25;;;8.40;66.50;;;;;;4998196;28;20037;-84
2022/03/14 00:02:47;;;;;;;14.85;11.38;;;8.30;65.40;;;;;;5016135;28;20034;-85
2022/03/14 00:05:17;;;;;;;17.38;12.95;;;8.40;66.70;;;;;;4997987;28;20041;-86
2022/03/14 00:07:46;;;;;;;;;;;8.40;64.60;;;;;;5016126;28;20030;-86
2022/03/14 00:10:14;;;;;;;22.42;12.90;;;8.10;65.10;;;;;;4998252;28;19956;-86
2022/03/14 00:12:42;;;;;;;18.95;13.35;;;7.80;65.20;;;;;;5015580;28;20061;-86
2022/03/14 00:15:11;;;;;;;16.08;13.13;;;7.60;65.80;;;;;;5016740;28;20041;-86
2022/03/14 00:17:38;;;;;;;18.55;14.00;;;7.50;65.70;;;;;;4997405;28;20176;-85
2022/03/14 00:20:06;;;;;;;19.08;14.50;;;7.40;66.20;;;;;;4999060;28;20120;-86
2022/03/14 00:22:31;;;;;;;16.63;12.30;;;7.40;66.40;;;;;;4998907;28;20022;-87
2022/03/14 00:24:58;;;;;;;18.17;11.88;;;7.50;67.50;;;;;;4999055;28;20040;-89
2022/03/14 00:27:23;;;;;;;16.90;13.43;;;7.60;68.90;;;;;;5006771;28;20124;-89
2022/03/14 00:29:49;;;;;;;14.75;11.18;;;7.60;66.10;;;;;;5017976;28;20116;-89
2022/03/14 00:32:15;;;;;;;14.02;11.20;;;7.70;67.00;;;;;;5019485;28;20045;-89
2022/03/14 00:34:41;;;;;;;17.13;10.80;;;7.90;67.90;;;;;;5015665;28;20520;-91
2022/03/14 00:37:07;;;;;;;13.32;10.90;;;8.00;66.20;;;;;;5022087;28;20112;-91
2022/03/14 00:39:33;;;;;;;14.93;10.43;;;8.00;67.30;;;;;;5000167;28;20038;-91
2022/03/14 00:41:59;;;;;;;14.00;10.52;;;8.00;66.40;;;;;;5017398;28;20090;-90
2022/03/14 00:44:24;;;;;;;13.90;10.52;;;8.10;67.60;;;;;;5016426;28;20053;-90
2022/03/14 00:46:50;;;;;;;16.48;11.18;;;8.20;66.80;;;;;;4999077;28;20397;-91
2022/03/14 00:49:16;;;;;;;14.27;11.43;;;8.10;64.80;;;;;;5017220;28;20478;-90
2022/03/14 00:51:42;;;;;;;14.68;11.38;;;8.10;65.70;;;;;;4999230;28;20061;-90
2022/03/14 00:54:09;;;;;;;15.52;11.43;;;8.00;65.50;;;;;;4998835;28;20386;-89
2022/03/14 00:56:35;;;;;;;18.38;12.25;;;8.10;66.90;;;;;;5016222;28;20505;-89
2022/03/14 00:59:01;;;;;;;23.92;13.43;;;8.10;64.80;;;;;;5017127;28;20026;-88
2022/03/14 01:01:27;;;;;;;14.93;12.23;;;8.00;64.90;;;;;;5016407;28;20038;-88
2022/03/14 01:03:54;;;;;;;18.00;13.30;;;8.00;65.50;;;;;;4998455;28;20034;-88
2022/03/14 01:06:20;;;;;;;14.95;12.07;;;8.00;65.60;;;;;;4998363;28;20030;-88
2022/03/14 01:08:46;;;;;;;18.95;12.70;;;7.90;66.30;;;;;;5015951;28;20040;-87
2022/03/14 01:11:11;;;;;;;16.88;12.82;;;8.00;65.80;;;;;;5016220;28;20532;-88
2022/03/14 01:13:37;;;;;;;17.77;11.88;;;8.00;65.00;;;;;;5015869;28;20026;-89
2022/03/14 01:16:03;;;;;;;15.25;11.63;;;8.10;65.20;;;;;;4998689;28;20101;-89
2022/03/14 01:18:30;;;;;;;14.15;11.15;;;8.10;66.20;;;;;;4998008;28;20042;-92
2022/03/14 01:20:56;;;;;;;15.88;11.90;;;8.20;66.80;;;;;;4999102;28;20038;-92
2022/03/14 01:23:22;;;;;;;15.88;12.18;;;8.20;65.90;;;;;;5015391;28;20037;-91
2022/03/14 01:25:48;;;;;;;19.73;13.20;;;8.20;65.40;;;;;;5016565;28;20037;-91
2022/03/14 01:28:14;;;;;;;17.13;12.85;;;8.10;65.60;;;;;;4999897;28;20038;-89
2022/03/14 01:30:40;;;;;;;17.42;12.43;;;8.00;66.60;;;;;;4999574;28;20045;-86
2022/03/14 01:33:05;;;;;;;16.77;13.30;;;8.00;66.10;;;;;;5017246;28;20109;-86
2022/03/14 01:35:31;;;;;;;17.35;12.90;;;8.10;67.00;;;;;;5016866;28;20097;-86
2022/03/14 01:37:57;;;;;;;22.15;14.63;;;8.00;65.90;;;;;;4999655;28;20052;-87
2022/03/14 01:40:24;;;;;;;17.17;12.70;;;8.10;66.00;;;;;;5017059;28;20042;-88
2022/03/14 01:42:50;;;;;;;18.52;13.50;;;8.10;66.90;;;;;;5025355;28;20103;-89
2022/03/14 01:45:19;;;;;;;17.98;13.25;;;8.20;66.60;;;;;;4999565;28;20033;-89
2022/03/14 01:47:45;;;;;;;24.95;15.88;;;8.20;66.50;;;;;;5001702;28;20045;-89
2022/03/14 01:50:13;;;;;;;21.77;15.90;;;8.20;65.00;;;;;;4999237;28;20041;-89
2022/03/14 01:52:39;;;;;;;22.88;15.52;;;8.10;65.30;;;;;;5015645;28;20038;-89
2022/03/14 01:55:06;;;;;;;22.80;16.98;;;8.00;65.80;;;;;;5016561;28;20091;-89
2022/03/14 01:57:33;;;;;;;27.55;18.48;;;8.00;65.10;;;;;;5017508;28;20056;-88
2022/03/14 02:00:00;;;;;;;26.55;17.33;;;7.90;65.00;;;;;;5016601;28;20038;-88
2022/03/14 02:02:26;;;;;;;21.73;16.63;;;7.90;65.70;;;;;;4998059;28;20045;-88
2022/03/14 02:04:53;;;;;;;21.52;16.23;;;7.90;65.40;;;;;;5001679;28;20068;-88
2022/03/14 02:07:20;;;;;;;20.33;15.50;;;7.80;65.20;;;;;;4998688;28;20026;-86
2022/03/14 02:09:46;;;;;;;20.27;15.57;;;7.90;66.00;;;;;;5016366;28;20025;-86
2022/03/14 02:12:12;;;;;;;19.70;15.48;;;7.80;65.70;;;;;;4996886;28;20448;-87
2022/03/14 02:14:42;;;;;;;18.40;14.65;;;7.80;65.40;;;;;;4997024;28;20034;-87
2022/03/14 02:17:09;;;;;;;21.10;15.43;;;7.80;65.80;;;;;;5013514;28;20056;-87
2022/03/14 02:19:36;;;;;;;16.92;13.27;;;7.90;64.90;;;;;;5014786;28;20030;-87
2022/03/14 02:22:03;;;;;;;23.73;14.35;;;8.00;64.10;;;;;;5011348;28;20030;-87
2022/03/14 02:24:29;;;;;;;15.48;12.98;;;8.00;64.00;;;;;;4996837;28;20371;-88
2022/03/14 02:26:56;;;;;;;18.02;13.07;;;7.90;64.30;;;;;;5014885;28;20105;-89
2022/03/14 02:29:23;;;;;;;15.77;12.30;;;8.00;63.40;;;;;;4997711;28;20367;-87
2022/03/14 02:31:50;;;;;;;17.48;13.50;;;8.00;64.20;;;;;;5007389;28;20485;-86
2022/03/14 02:34:16;;;;;;;18.67;13.23;;;8.00;64.20;;;;;;5034265;28;20029;-87
2022/03/14 02:36:42;;;;;;;25.45;18.23;;;8.00;63.70;;;;;;4996857;28;20038;-89
2022/03/14 02:39:09;;;;;;;23.60;18.17;;;7.80;63.00;;;;;;4997276;28;20030;-90
2022/03/14 02:41:36;;;;;;;27.60;18.90;;;7.70;63.20;;;;;;4996174;28;20042;-89
2022/03/14 02:44:06;;;;;;;24.80;17.38;;;7.70;63.80;;;;;;5014906;28;20034;-88
2022/03/14 02:46:34;;;;;;;27.70;17.67;;;7.60;64.10;;;;;;5014343;28;20042;-87
2022/03/14 02:49:00;;;;;;;26.88;18.73;;;7.60;64.40;;;;;;5007434;28;20034;-87
2022/03/14 02:51:26;;;;;;;22.73;16.70;;;7.60;64.30;;;;;;5013382;28;20041;-87
2022/03/14 02:53:53;;;;;;;31.70;21.85;;;7.70;63.90;;;;;;4996386;28;20052;-87
2022/03/14 02:56:20;;;;;;;33.25;22.45;;;7.60;62.70;;;;;;5014223;28;20111;-88
2022/03/14 02:58:47;;;;;;;30.48;21.00;;;7.40;63.20;;;;;;5014298;28;20370;-89
2022/03/14 03:01:15;;;;;;;29.10;19.60;;;7.40;63.50;;;;;;4996475;28;20060;-88
2022/03/14 03:03:41;;;;;;;26.02;19.30;;;7.40;63.00;;;;;;5014406;28;20038;-88
2022/03/14 03:06:11;;;;;;;28.92;20.15;;;7.50;63.40;;;;;;4996695;28;20113;-87
2022/03/14 03:08:37;;;;;;;30.45;19.27;;;7.60;64.30;;;;;;4996834;28;20433;-88
2022/03/14 03:11:08;;;;;;;26.10;18.23;;;7.60;63.30;;;;;;5014044;28;20393;-88
2022/03/14 03:13:35;;;;;;;26.38;19.20;;;7.50;61.90;;;;;;4996095;28;20385;-87
2022/03/14 03:16:01;;;;;;;25.13;17.88;;;7.30;62.70;;;;;;4996891;28;20080;-86
2022/03/14 03:18:26;;;;;;;23.27;16.92;;;7.20;62.70;;;;;;5014037;28;20034;-88
2022/03/14 03:20:52;;;;;;;22.48;15.52;;;7.20;62.70;;;;;;5014017;28;20113;-87
2022/03/14 03:23:19;;;;;;;25.10;17.20;;;7.20;62.20;;;;;;5013613;28;20030;-86
2022/03/14 03:25:45;;;;;;;28.67;17.33;;;7.30;61.90;;;;;;5014094;28;20041;-88
2022/03/14 03:28:10;;;;;;;22.55;16.17;;;7.20;62.40;;;;;;5014798;28;20026;-91
2022/03/14 03:30:36;;;;;;;22.45;15.57;;;7.10;62.20;;;;;;5014762;28;20030;-91
2022/03/14 03:33:02;;;;;;;21.73;15.40;;;7.10;62.60;;;;;;4997407;28;20172;-91
2022/03/14 03:35:28;;;;;;;24.00;16.17;;;7.20;63.00;;;;;;4999434;28;20050;-91
2022/03/14 03:37:54;;;;;;;21.23;15.10;;;7.20;62.50;;;;;;4996766;28;20475;-91
2022/03/14 03:40:19;;;;;;;23.05;15.52;;;7.20;62.40;;;;;;5014170;28;20042;-90
2022/03/14 03:42:45;;;;;;;22.40;15.45;;;7.30;63.20;;;;;;5014386;28;20064;-91
2022/03/14 03:45:13;;;;;;;22.58;16.38;;;7.40;62.90;;;;;;4996326;28;20030;-90
2022/03/14 03:47:42;;;;;;;22.40;14.95;;;7.40;62.80;;;;;;4996361;28;20025;-90
2022/03/14 03:50:09;;;;;;;22.75;16.20;;;7.40;62.00;;;;;;5014506;28;20129;-90
2022/03/14 03:52:34;;;;;;;22.50;15.13;;;7.30;62.30;;;;;;4996229;28;20038;-90
2022/03/14 03:55:00;;;;;;;25.25;15.45;;;7.40;62.90;;;;;;5013867;28;20164;-90
2022/03/14 03:57:26;;;;;;;19.67;14.98;;;7.40;61.60;;;;;;4996387;28;20030;-90
2022/03/14 03:59:52;;;;;;;19.45;14.60;;;7.40;61.70;;;;;;4996412;28;20449;-90
2022/03/14 04:02:19;;;;;;;19.50;13.15;;;7.40;62.00;;;;;;5013484;28;20034;-90
2022/03/14 04:04:49;;;;;;;22.48;15.10;;;7.40;62.00;;;;;;4995987;28;20045;-88
2022/03/14 04:07:23;;;;;;;19.23;14.05;;;7.40;61.50;;;;;;4995088;28;20026;-86
2022/03/14 04:09:55;;;;;;;21.73;15.18;;;7.40;62.10;;;;;;4995185;28;20038;-88
2022/03/14 04:12:26;;;;;;;17.05;12.55;;;7.40;61.50;;;;;;5015207;28;20129;-86
2022/03/14 04:14:51;;;;;;;;;;;7.40;61.60;;;;;;5017115;28;20033;-87
2022/03/14 04:17:18;;;;;;;21.38;13.27;;;7.50;60.70;;;;;;5016156;28;20000;-85
2022/03/14 04:19:47;;;;;;;18.23;13.32;;;7.40;60.50;;;;;;4998704;28;20045;-86
2022/03/14 04:22:14;;;;;;;19.33;13.13;;;7.50;61.40;;;;;;4998991;28;20029;-89
2022/03/14 04:24:40;;;;;;;16.58;12.90;;;7.60;60.70;;;;;;5010854;28;20072;-88
2022/03/14 04:27:06;;;;;;;17.98;12.57;;;7.50;60.80;;;;;;4998806;28;20033;-90
2022/03/14 04:29:31;;;;;;;18.02;14.18;;;7.50;61.30;;;;;;4999459;28;20038;-89
2022/03/14 04:32:17;;;;;;;17.75;13.27;;;7.40;61.70;;;;;;5017057;28;20029;-88
2022/03/14 04:34:45;;;;;;;16.35;12.60;;;7.50;61.60;;;;;;4998804;28;20537;-89
2022/03/14 04:37:13;;;;;;;16.90;13.25;;;7.50;61.00;;;;;;5016514;28;20054;-90
2022/03/14 04:39:40;;;;;;;18.42;12.75;;;7.50;60.40;;;;;;4994318;28;20048;-87
2022/03/14 04:42:07;;;;;;;21.30;13.38;;;7.60;60.80;;;;;;4998671;28;20033;-87
2022/03/14 04:44:34;;;;;;;20.05;13.07;;;7.50;61.30;;;;;;4998441;28;20092;-87
2022/03/14 04:47:00;;;;;;;17.50;13.20;;;7.50;61.40;;;;;;4999738;28;20036;-87
2022/03/14 04:49:27;;;;;;;18.75;12.90;;;7.50;61.10;;;;;;5010114;28;20042;-88
2022/03/14 04:51:55;;;;;;;20.05;13.30;;;7.50;60.80;;;;;;5015856;28;20056;-89
2022/03/14 04:54:22;;;;;;;17.38;13.52;;;7.50;61.20;;;;;;4998345;28;20120;-88
2022/03/14 04:56:50;;;;;;;20.52;13.68;;;7.40;60.90;;;;;;4998493;28;20034;-88
2022/03/14 04:59:16;;;;;;;22.77;14.50;;;7.40;61.90;;;;;;4998090;28;20034;-87
2022/03/14 05:01:43;;;;;;;21.05;14.10;;;7.40;61.30;;;;;;5000146;28;20367;-84
2022/03/14 05:04:09;;;;;;;21.73;14.77;;;7.30;61.00;;;;;;5014888;28;20503;-85
2022/03/14 05:06:35;;;;;;;17.30;12.98;;;7.20;61.60;;;;;;4997167;28;20030;-86
2022/03/14 05:09:01;;;;;;;18.67;13.85;;;7.20;61.70;;;;;;5015244;28;20083;-85
2022/03/14 05:11:40;;;;;;;22.55;14.15;;;7.10;61.70;;;;;;5004909;28;20034;-82
2022/03/14 05:14:08;;;;;;;17.15;12.73;;;7.00;62.30;;;;;;4994744;28;20394;-82
2022/03/14 05:16:35;;;;;;;19.08;13.05;;;7.10;62.00;;;;;;4996353;28;20103;-83
2022/03/14 05:19:02;;;;;;;19.95;14.27;;;7.10;61.60;;;;;;4993874;28;20479;-83
2022/03/14 05:21:27;;;;;;;22.27;14.55;;;7.10;62.10;;;;;;5014387;28;20042;-83
2022/03/14 05:23:53;;;;;;;17.23;12.82;;;7.10;62.70;;;;;;5018113;28;20034;-83
2022/03/14 05:26:19;;;;;;;19.33;14.07;;;7.10;61.80;;;;;;5012081;28;20498;-81
2022/03/14 05:28:44;;;;;;;18.35;13.70;;;7.10;62.50;;;;;;5014742;28;20030;-81
2022/03/14 05:31:10;;;;;;;21.95;15.00;;;7.10;62.40;;;;;;4996145;28;20478;-81
2022/03/14 05:33:36;;;;;;;19.30;13.85;;;7.10;62.60;;;;;;4995488;28;20056;-81
2022/03/14 05:36:02;;;;;;;19.00;13.57;;;7.20;62.40;;;;;;5013734;28;20042;-80
2022/03/14 05:38:29;;;;;;;18.80;12.45;;;7.20;62.90;;;;;;4996174;28;20037;-80
2022/03/14 05:40:55;;;;;;;19.77;12.95;;;7.20;61.70;;;;;;5013871;28;20094;-85
2022/03/14 05:43:21;;;;;;;15.00;11.60;;;7.20;62.00;;;;;;4996070;28;20037;-80
2022/03/14 05:45:47;;;;;;;19.35;12.75;;;7.30;62.20;;;;;;5012653;28;20124;-80
2022/03/14 05:48:13;;;;;;;18.08;12.43;;;7.40;61.90;;;;;;5013076;28;20062;-81
2022/03/14 05:50:39;;;;;;;16.95;12.68;;;7.40;61.60;;;;;;4995406;28;20111;-81
2022/03/14 05:53:04;;;;;;;17.13;12.23;;;7.50;61.40;;;;;;5014514;28;20461;-83
2022/03/14 05:55:39;;;;;;;19.13;12.70;;;7.50;61.90;;;;;;4995307;28;20081;-82
2022/03/14 05:58:06;;;;;;;19.95;12.90;;;7.50;61.30;;;;;;4995658;28;20033;-82
2022/03/14 06:00:33;;;;;;;21.02;12.95;;;7.50;61.60;;;;;;4998858;28;20545;-79
2022/03/14 06:02:59;;;;;;;17.08;13.02;;;7.50;61.50;;;;;;5001735;23;20395;-79
2022/03/14 06:05:25;;;;;;;23.02;14.98;;;7.50;62.00;;;;;;5001430;28;20105;-81
2022/03/14 06:07:51;;;;;;;24.80;16.30;;;7.50;61.80;;;;;;4991969;28;20132;-81
2022/03/14 06:10:17;;;;;;;26.27;17.38;;;7.20;61.50;;;;;;4986482;28;20058;-82
2022/03/14 06:12:43;;;;;;;28.08;17.83;;;6.80;62.90;;;;;;5001898;28;20081;-81
2022/03/14 06:15:12;;;;;;;24.85;16.25;;;6.60;63.80;;;;;;4981483;28;20046;-82
2022/03/14 06:17:40;;;;;;;23.70;15.50;;;6.50;64.20;;;;;;4986147;28;20057;-83
2022/03/14 06:20:07;;;;;;;23.55;15.30;;;6.60;64.30;;;;;;5004750;28;20493;-85
2022/03/14 06:22:41;;;;;;;21.10;14.07;;;6.60;64.00;;;;;;5007442;28;20022;-85
2022/03/14 06:25:08;;;;;;;26.40;15.80;;;6.70;64.80;;;;;;4981900;28;20038;-84
2022/03/14 06:27:33;;;;;;;26.40;18.00;;;6.80;63.40;;;;;;5002554;28;20493;-83
2022/03/14 06:29:59;;;;;;;25.52;17.70;;;6.70;63.20;;;;;;4985681;28;20112;-83
2022/03/14 06:32:25;;;;;;;25.45;18.48;;;6.60;63.70;;;;;;4987828;28;20378;-85
2022/03/14 06:34:50;;;;;;;24.45;18.17;;;6.50;63.90;;;;;;5010290;28;20054;-86
2022/03/14 06:37:16;;;;;;;23.50;17.17;;;6.30;65.00;;;;;;4997802;28;20801;-83
2022/03/14 06:39:42;;;;;;;24.08;18.05;;;6.20;65.40;;;;;;4995451;28;20046;-82
2022/03/14 06:42:14;;;;;;;23.02;15.05;;;6.30;65.50;;;;;;4995210;28;20442;-83
2022/03/14 06:44:42;;;;;;;24.45;17.05;;;6.60;65.00;;;;;;4995558;28;20081;-83
2022/03/14 06:47:12;;;;;;;25.45;16.65;;;6.70;64.10;;;;;;4993967;28;20085;-83
2022/03/14 06:49:44;;;;;;;21.83;15.70;;;6.80;64.50;;;;;;4991221;28;20030;-83
2022/03/14 06:52:14;;;;;;;23.45;14.13;;;6.90;63.60;;;;;;4973203;28;20051;-83
2022/03/14 06:54:41;;;;;;;24.48;14.20;;;7.10;63.40;;;;;;4980812;28;20034;-84
2022/03/14 06:57:08;;;;;;;26.58;15.55;;;7.20;62.80;;;;;;4980606;28;20034;-83
2022/03/14 06:59:34;;;;;;;46.13;17.17;;;7.40;62.80;;;;;;5002949;28;20129;-83
2022/03/14 07:02:01;;;;;;;39.42;15.90;;;7.50;63.40;;;;;;4998424;28;20405;-83
2022/03/14 07:04:53;;;;;;;23.27;15.73;;;7.60;63.00;;;;;;4995231;28;20034;-83
2022/03/14 07:07:19;;;;;;;22.42;15.38;;;7.70;62.60;;;;;;5006606;28;20415;-80
2022/03/14 07:09:44;;;;;;;20.58;13.93;;;7.70;62.40;;;;;;4991097;28;20085;-82
2022/03/14 07:12:12;;;;;;;51.90;15.93;;;7.90;62.40;;;;;;4992140;28;20045;-82
2022/03/14 07:14:38;;;;;;;27.75;14.43;;;7.90;61.60;;;;;;4974427;28;20113;-82
2022/03/14 07:17:04;;;;;;;24.45;15.23;;;8.10;62.60;;;;;;4992510;28;20124;-81
2022/03/14 07:19:30;;;;;;;21.17;16.17;;;8.10;61.80;;;;;;4970933;28;20108;-81
2022/03/14 07:21:56;;;;;;;25.63;17.35;;;8.00;61.60;;;;;;4983237;28;20046;-82
2022/03/14 07:24:22;;;;;;;27.48;17.10;;;7.80;62.30;;;;;;4980952;28;20142;-80
2022/03/14 07:26:49;;;;;;;26.52;18.52;;;7.60;63.20;;;;;;4979811;28;20056;-81
2022/03/14 07:29:15;;;;;;;26.52;16.63;;;7.40;63.80;;;;;;4978646;28;20397;-81
2022/03/14 07:31:41;;;;;;;24.02;16.38;;;7.50;64.50;;;;;;5007674;28;20108;-80
2022/03/14 07:34:08;;;;;;;26.40;16.15;;;7.50;64.60;;;;;;4976564;28;20141;-83
2022/03/14 07:36:34;;;;;;;23.13;15.43;;;7.60;65.20;;;;;;4977484;28;20451;-83
2022/03/14 07:39:01;;;;;;;22.48;15.65;;;7.80;64.50;;;;;;4983495;28;20132;-82
2022/03/14 07:41:27;;;;;;;23.35;16.45;;;8.00;64.10;;;;;;5006743;28;20359;-82
2022/03/14 07:43:53;;;;;;;22.25;14.82;;;8.10;63.50;;;;;;4988209;28;20087;-82
2022/03/14 07:46:18;;;;;;;19.98;14.35;;;8.10;63.20;;;;;;4983438;28;20077;-82
2022/03/14 07:48:44;;;;;;;24.90;16.20;;;8.30;63.30;;;;;;5013328;28;20034;-82
2022/03/14 07:51:10;;;;;;;26.65;17.02;;;8.30;62.50;;;;;;5018251;28;20034;-82
2022/03/14 07:53:36;;;;;;;25.35;16.20;;;8.20;62.60;;;;;;5017351;28;20038;-82
2022/03/14 07:56:02;;;;;;;26.00;17.23;;;8.10;62.80;;;;;;5017538;28;20485;-81
2022/03/14 07:58:27;;;;;;;20.98;16.55;;;8.00;62.60;;;;;;5017642;28;20046;-82
2022/03/14 08:00:54;;;;;;;22.00;16.98;;;8.00;62.90;;;;;;4999851;28;20077;-82
2022/03/14 08:03:21;;;;;;;22.85;15.55;;;7.90;62.70;;;;;;5001125;28;20046;-81
2022/03/14 08:05:48;;;;;;;23.92;16.02;;;8.00;63.30;;;;;;4996019;28;20355;-83
2022/03/14 08:08:17;;;;;;;22.23;13.82;;;8.10;63.10;;;;;;4998123;28;20045;-84
2022/03/14 08:10:42;;;;;;;17.92;13.23;;;8.30;62.60;;;;;;4980071;28;20045;-84
2022/03/14 08:13:08;;;;;;;25.90;14.00;;;8.50;62.70;;;;;;4980172;28;20129;-82
2022/03/14 08:15:37;;;;;;;20.05;13.75;;;8.60;62.70;;;;;;4995589;28;20039;-82
2022/03/14 08:18:07;;;;;;;16.48;12.52;;;8.80;62.60;;;;;;4989495;28;20122;-82
2022/03/14 08:20:34;;;;;;;17.48;13.00;;;8.90;60.90;;;;;;4996975;28;20038;-81
2022/03/14 08:23:02;;;;;;;23.10;13.10;;;9.00;61.40;;;;;;4997768;28;20070;-79
2022/03/14 08:25:29;;;;;;;21.40;13.38;;;9.20;61.70;;;;;;4991133;28;20035;-82
2022/03/14 08:27:55;;;;;;;19.13;12.23;;;9.30;60.90;;;;;;4994404;28;20034;-80
2022/03/14 08:30:22;;;;;;;18.73;13.32;;;9.40;61.00;;;;;;4980068;28;20045;-79
2022/03/14 08:32:49;;;;;;;19.35;13.45;;;9.50;61.00;;;;;;4995778;28;20038;-79
2022/03/14 08:35:17;;;;;;;19.75;12.45;;;9.60;60.70;;;;;;4980678;28;20047;-80
2022/03/14 08:37:44;;;;;;;18.85;13.52;;;9.80;60.20;;;;;;4978442;28;20139;-80
2022/03/14 08:40:11;;;;;;;16.55;13.05;;;9.90;61.30;;;;;;4987671;28;20069;-80
2022/03/14 08:42:38;;;;;;;18.38;14.25;;;10.10;59.80;;;;;;4998595;28;20039;-80
2022/03/14 08:45:05;;;;;;;21.95;12.95;;;10.40;58.90;;;;;;4997016;28;20035;-79
2022/03/14 08:47:33;;;;;;;18.75;13.25;;;10.50;59.10;;;;;;4984776;28;20030;-79
2022/03/14 08:49:59;;;;;;;14.73;11.38;;;10.70;58.70;;;;;;4989389;28;20055;-79
2022/03/14 08:52:24;;;;;;;13.73;10.95;;;10.80;58.20;;;;;;4987323;28;20027;-78
2022/03/14 08:54:50;;;;;;;15.63;10.73;;;10.90;57.90;;;;;;4982977;28;20034;-78
2022/03/14 08:57:16;;;;;;;14.40;11.38;;;11.10;58.00;;;;;;4985862;28;20031;-78
2022/03/14 08:59:44;;;;;;;16.88;10.63;;;11.30;57.70;;;;;;4995940;28;20380;-80
2022/03/14 09:02:10;;;;;;;12.43;10.70;;;11.40;57.30;;;;;;4984600;28;20117;-79
2022/03/14 09:04:36;;;;;;;16.48;10.82;;;11.50;56.90;;;;;;4995269;28;20474;-79
2022/03/14 09:07:02;;;;;;;13.32;10.38;;;11.60;56.60;;;;;;4990798;28;20562;-80
2022/03/14 09:09:28;;;;;;;11.82;10.43;;;11.70;56.70;;;;;;4994430;28;20110;-79
2022/03/14 09:11:54;;;;;;;11.65;9.55;;;11.90;57.10;;;;;;4992079;28;20105;-79
2022/03/14 09:14:20;;;;;;;17.70;10.23;;;12.00;57.20;;;;;;4997925;28;20050;-79
2022/03/14 09:16:46;;;;;;;12.57;10.32;;;12.30;57.40;;;;;;5002933;28;20509;-79
2022/03/14 09:19:13;;;;;;;11.90;9.35;;;12.30;56.70;;;;;;4986022;28;20526;-79
2022/03/14 09:21:38;;;;;;;12.70;8.95;;;12.50;56.90;;;;;;4978857;28;20441;-79
2022/03/14 09:24:04;;;;;;;10.57;8.75;;;12.70;57.10;;;;;;4971505;28;20035;-79
2022/03/14 09:26:32;;;;;;;9.30;7.63;;;12.80;56.70;;;;;;4995621;28;20157;-79
2022/03/14 09:28:59;;;;;;;11.55;9.57;;;13.00;56.40;;;;;;4976189;28;20042;-79
2022/03/14 09:31:25;;;;;;;10.30;7.97;;;13.00;56.30;;;;;;4994570;28;20487;-79
2022/03/14 09:33:51;;;;;;;9.98;7.60;;;13.00;56.10;;;;;;4978408;28;20050;-79
2022/03/14 09:36:17;;;;;;;10.20;7.85;;;13.10;56.60;;;;;;4994932;28;20038;-80
2022/03/14 09:38:44;;;;;;;10.80;8.00;;;13.20;56.20;;;;;;4967576;28;20054;-79
2022/03/14 09:41:12;;;;;;;10.50;7.28;;;13.40;55.30;;;;;;4993450;28;20066;-79
2022/03/14 09:43:39;;;;;;;13.43;7.60;;;13.70;54.40;;;;;;4995922;28;20439;-80
2022/03/14 09:46:09;;;;;;;10.68;7.05;;;13.90;53.10;;;;;;4995831;28;20081;-79
2022/03/14 09:48:40;;;;;;;10.70;8.25;;;14.00;53.80;;;;;;4995598;28;20034;-80
2022/03/14 09:51:07;;;;;;;10.52;7.25;;;14.20;53.80;;;;;;4976847;28;20050;-79
2022/03/14 09:53:35;;;;;;;7.57;6.32;;;14.40;54.20;;;;;;4995248;28;20058;-79
2022/03/14 09:56:01;;;;;;;9.27;6.90;;;14.60;54.60;;;;;;4993314;28;20041;-80
2022/03/14 09:58:27;;;;;;;8.23;6.13;;;14.70;53.80;;;;;;4987150;28;20034;-79
2022/03/14 10:00:54;;;;;;;6.88;5.65;;;14.80;53.60;;;;;;4977505;28;20037;-81
2022/03/14 10:03:22;;;;;;;7.32;5.43;;;14.90;53.90;;;;;;4978107;28;20038;-80
2022/03/14 10:05:48;;;;;;;9.23;5.88;;;15.00;53.60;;;;;;4996031;28;20109;-79
2022/03/14 10:08:15;;;;;;;7.80;5.50;;;15.00;52.60;;;;;;4993707;28;20038;-78
2022/03/14 10:10:42;;;;;;;6.43;5.15;;;15.10;52.20;;;;;;4997759;28;20538;-78
2022/03/14 10:13:10;;;;;;;11.65;6.00;;;15.30;52.40;;;;;;4986863;28;20034;-81
2022/03/14 10:15:37;;;;;;;8.40;4.88;;;15.30;52.30;;;;;;4985894;28;20054;-81
2022/03/14 10:18:14;;;;;;;8.98;5.28;;;15.40;52.80;;;;;;4998994;28;20092;-81
2022/03/14 10:20:56;;;;;;;6.68;5.22;;;15.40;51.40;;;;;;4994920;28;20038;-81
2022/03/14 10:23:33;;;;;;;5.32;4.82;;;15.60;52.10;;;;;;4996451;28;20077;-81
2022/03/14 10:26:00;;;;;;;10.57;5.80;;;15.70;52.40;;;;;;5002036;28;20113;-81
2022/03/14 10:28:33;;;;;;;10.30;5.13;;;15.90;51.40;;;;;;5015180;28;20038;-81
2022/03/14 10:31:03;;;;;;;6.93;4.65;;;16.00;51.60;;;;;;4973931;28;20129;-81
2022/03/14 10:33:32;;;;;;;9.00;5.45;;;16.10;50.40;;;;;;4976709;28;20050;-81
2022/03/14 10:35:59;;;;;;;5.90;5.07;;;16.10;51.10;;;;;;4994505;28;20086;-81
2022/03/14 10:38:26;;;;;;;6.90;5.03;;;16.30;50.90;;;;;;4991459;28;20026;-82
2022/03/14 10:40:52;;;;;;;8.10;5.47;;;16.40;51.30;;;;;;5005447;28;20402;-81
2022/03/14 10:43:25;;;;;;;7.15;4.90;;;16.30;50.00;;;;;;4976533;28;20027;-81
2022/03/14 10:45:52;;;;;;;6.95;4.90;;;16.50;51.20;;;;;;4994561;28;20046;-82
2022/03/14 10:48:34;;;;;;;7.45;5.57;;;16.70;53.90;;;;;;4977712;28;20026;-82
2022/03/14 10:51:05;;;;;;;10.38;5.68;;;17.00;51.10;;;;;;4988057;28;20042;-80
2022/03/14 10:53:31;;;;;;;8.10;5.43;;;17.10;50.00;;;;;;4958890;28;20090;-82
2022/03/14 10:56:01;;;;;;;8.57;6.13;;;17.10;50.20;;;;;;4962866;28;20050;-82
2022/03/14 10:58:33;;;;;;;6.93;5.13;;;17.20;48.50;;;;;;5002451;28;20170;-82
2022/03/14 11:01:04;;;;;;;9.32;5.72;;;17.30;49.50;;;;;;5008208;28;20121;-88
2022/03/14 11:03:35;;;;;;;9.93;6.22;;;17.30;49.30;;;;;;4998392;28;20061;-81
2022/03/14 11:06:06;;;;;;;7.70;5.70;;;17.30;48.10;;;;;;5010511;28;20065;-81
2022/03/14 11:08:41;;;;;;;8.88;6.38;;;17.40;47.20;;;;;;4991020;28;20025;-80
2022/03/14 11:11:22;;;;;;;8.57;5.80;;;17.40;47.10;;;;;;4994763;28;20072;-80
2022/03/14 11:13:51;;;;;;;11.43;6.70;;;17.60;47.60;;;;;;5007241;28;20068;-80
2022/03/14 11:16:28;;;;;;;7.53;5.88;;;17.60;46.40;;;;;;4991925;28;20042;-80
2022/03/14 11:18:55;;;;;;;7.82;6.43;;;17.50;47.40;;;;;;4981755;28;20035;-80
2022/03/14 11:21:26;;;;;;;7.78;6.30;;;17.60;47.30;;;;;;4993590;28;20106;-80
2022/03/14 11:23:54;;;;;;;10.63;6.82;;;17.60;47.60;;;;;;4999884;28;20494;-81
2022/03/14 11:26:24;;;;;;;8.02;5.88;;;17.60;47.50;;;;;;4996358;28;20045;-83
2022/03/14 11:28:52;;;;;;;8.15;6.07;;;17.40;47.50;;;;;;5000688;28;20054;-82
2022/03/14 11:31:21;;;;;;;6.95;5.40;;;17.40;48.20;;;;;;4977275;28;20503;-83
2022/03/14 11:33:49;;;;;;;7.77;4.80;;;17.30;48.50;;;;;;4985725;28;20065;-83
2022/03/14 11:36:18;;;;;;;8.07;5.40;;;17.30;49.00;;;;;;4977275;28;20285;-83
2022/03/14 11:38:44;;;;;;;7.57;5.70;;;17.40;48.20;;;;;;4973588;28;20046;-83
2022/03/14 11:41:10;;;;;;;8.82;4.78;;;17.40;48.20;;;;;;4994322;28;20093;-83
2022/03/14 11:43:40;;;;;;;7.30;4.75;;;17.50;47.90;;;;;;4979265;28;20038;-82
2022/03/14 11:46:06;;;;;;;7.30;5.85;;;17.70;47.80;;;;;;4979665;28;20433;-83
2022/03/14 11:48:34;;;;;;;9.68;5.15;;;18.10;49.40;;;;;;4997542;28;20121;-84
2022/03/14 11:51:06;;;;;;;17.33;5.35;;;18.50;45.10;;;;;;4998041;28;20438;-83
2022/03/14 11:53:46;;;;;;;6.75;5.07;;;18.80;44.30;;;;;;4994955;28;20085;-83
2022/03/14 11:56:12;;;;;;;;;;;19.10;44.70;;;;;;4978317;28;20038;-82
2022/03/14 11:58:39;;;;;;;7.57;5.25;;;19.50;43.80;;;;;;5001127;28;20281;-82
2022/03/14 12:01:22;;;;;;;8.27;5.53;;;18.80;42.40;;;;;;4979009;28;20046;-82
2022/03/14 12:03:53;;;;;;;7.63;5.53;;;18.50;43.80;;;;;;4976275;28;20081;-82
2022/03/14 12:06:47;;;;;;;13.90;5.22;;;18.60;44.70;;;;;;4999708;28;20501;-82
2022/03/14 12:09:25;;;;;;;8.38;4.82;;;19.20;43.50;;;;;;5009233;28;20030;-83
2022/03/14 12:11:52;;;;;;;7.45;4.78;;;19.60;42.30;;;;;;4993882;28;20053;-80
2022/03/14 12:14:42;;;;;;;7.85;4.60;;;20.00;41.70;;;;;;4996052;28;20031;-81
2022/03/14 12:17:14;;;;;;;9.43;5.20;;;20.40;41.60;;;;;;4996989;28;20065;-81
2022/03/14 12:19:55;;;;;;;120.70;12.50;;;20.90;39.10;;;;;;4996798;28;20038;-81
2022/03/14 12:22:24;;;;;;;1174.15;70.22;;;20.80;38.50;;;;;;5002499;28;20039;-81
2022/03/14 12:24:50;;;;;;;627.35;49.75;;;20.50;39.80;;;;;;4996968;28;20077;-81
2022/03/14 12:27:18;;;;;;;41.70;5.07;;;20.30;40.80;;;;;;4995543;28;20062;-81
2022/03/14 12:29:46;;;;;;;591.13;45.60;;;20.00;40.80;;;;;;5006681;28;20074;-81
2022/03/14 12:32:31;;;;;;;7.13;4.13;;;20.10;41.60;;;;;;4995073;28;20034;-79
2022/03/14 12:35:26;;;;;;;120.28;10.55;;;20.30;40.90;;;;;;4998207;28;20100;-79
2022/03/14 12:37:56;;;;;;;670.33;53.80;;;20.60;40.40;;;;;;4995825;28;20129;-79
2022/03/14 12:40:22;;;;;;;10.15;5.40;;;20.50;41.10;;;;;;4999689;28;20121;-78